Time;durP1;ratioP1;P1;durP2;ratioP2;P2;SDS_P1;SDS_P2;PMS_P1;PMS_P2;Temp;Humidity;BMP_temperature;BMP_pressure;BME280_temperature;BME280_humidity;BME280_pressure;Samples;Min_cycle;Max_cycle;Signal;HPM_P1;HPM_P2
2021/10/20 00:00:21;;;;;;;12.45;7.60;;;11.90;99.90;;;;;;5047929;28;20382;-51
2021/10/20 00:02:49;;;;;;;13.75;7.45;;;11.90;99.90;;;;;;5048854;28;20381;-51
2021/10/20 00:05:18;;;;;;;14.85;7.90;;;11.90;99.90;;;;;;5046789;28;20958;-51
2021/10/20 00:07:45;;;;;;;13.60;7.10;;;11.90;99.90;;;;;;5048375;28;20425;-51
2021/10/20 00:10:11;;;;;;;14.20;8.37;;;11.90;99.90;;;;;;5048314;28;20586;-51
2021/10/20 00:12:37;;;;;;;13.60;7.50;;;11.90;99.90;;;;;;5048926;28;20412;-51
2021/10/20 00:15:05;;;;;;;14.40;7.90;;;11.80;99.90;;;;;;5048013;28;20409;-51
2021/10/20 00:17:32;;;;;;;13.18;7.80;;;11.70;99.90;;;;;;5048645;28;20400;-51
2021/10/20 00:20:05;;;;;;;16.77;8.00;;;11.70;99.90;;;;;;5047979;28;20377;-51
2021/10/20 00:22:31;;;;;;;13.63;7.60;;;11.80;99.90;;;;;;5048548;28;20377;-51
2021/10/20 00:24:57;;;;;;;13.13;7.70;;;11.80;99.90;;;;;;5046400;28;20390;-53
2021/10/20 00:27:22;;;;;;;12.52;8.07;;;11.80;99.90;;;;;;5048593;28;20409;-51
2021/10/20 00:29:48;;;;;;;14.50;8.83;;;11.80;99.90;;;;;;5049422;28;20381;-51
2021/10/20 00:32:14;;;;;;;13.50;7.85;;;11.80;99.90;;;;;;5051634;28;20428;-52
2021/10/20 00:34:39;;;;;;;12.23;8.00;;;11.80;99.90;;;;;;5052246;28;20386;-52
2021/10/20 00:37:05;;;;;;;11.73;7.00;;;11.70;99.90;;;;;;5050246;28;20490;-52
2021/10/20 00:39:31;;;;;;;11.20;7.22;;;11.70;99.90;;;;;;5052401;28;20438;-52
2021/10/20 00:41:56;;;;;;;13.90;7.30;;;11.50;99.90;;;;;;5051253;28;20769;-52
2021/10/20 00:44:22;;;;;;;11.95;7.43;;;11.40;99.90;;;;;;5052501;28;20388;-52
2021/10/20 00:46:49;;;;;;;12.13;6.87;;;11.40;99.90;;;;;;5052138;28;21341;-51
2021/10/20 00:49:15;;;;;;;12.43;7.10;;;11.30;99.90;;;;;;5051183;28;20389;-52
2021/10/20 00:51:41;;;;;;;11.90;7.00;;;11.30;99.90;;;;;;5052443;28;20385;-52
2021/10/20 00:54:07;;;;;;;10.88;7.10;;;11.20;99.90;;;;;;5051442;28;20392;-51
2021/10/20 00:56:33;;;;;;;12.03;6.80;;;11.20;99.90;;;;;;5051950;28;20869;-53
2021/10/20 00:58:59;;;;;;;10.98;6.70;;;11.20;99.90;;;;;;5051339;28;20378;-52
2021/10/20 01:01:25;;;;;;;11.63;6.35;;;11.20;99.90;;;;;;5052327;28;20790;-52
2021/10/20 01:03:50;;;;;;;12.23;6.73;;;11.10;99.90;;;;;;5051825;28;20385;-53
2021/10/20 01:06:17;;;;;;;12.35;6.57;;;11.20;99.90;;;;;;5051108;28;20381;-52
2021/10/20 01:08:44;;;;;;;10.80;6.70;;;11.20;99.90;;;;;;5051693;28;20495;-52
2021/10/20 01:11:10;;;;;;;10.15;6.55;;;11.30;99.90;;;;;;5051276;28;20421;-53
2021/10/20 01:13:35;;;;;;;12.33;6.80;;;11.30;99.90;;;;;;5051990;28;20492;-52
2021/10/20 01:16:02;;;;;;;11.32;7.13;;;11.30;99.90;;;;;;5050971;28;20794;-52
2021/10/20 01:18:29;;;;;;;11.77;6.88;;;11.20;99.90;;;;;;5052106;28;20461;-52
2021/10/20 01:20:58;;;;;;;11.70;6.88;;;11.30;99.90;;;;;;5051293;28;20417;-56
2021/10/20 01:23:24;;;;;;;10.48;6.55;;;11.20;99.90;;;;;;5050360;28;20420;-51
2021/10/20 01:25:50;;;;;;;10.70;6.63;;;11.20;99.90;;;;;;5051397;28;20413;-52
2021/10/20 01:28:15;;;;;;;11.00;7.07;;;11.20;99.90;;;;;;5050792;28;20467;-53
2021/10/20 01:30:42;;;;;;;11.43;6.20;;;11.30;99.90;;;;;;5051264;28;20424;-52
2021/10/20 01:33:11;;;;;;;11.30;6.60;;;11.30;99.90;;;;;;5050455;28;20455;-53
2021/10/20 01:35:37;;;;;;;11.98;6.63;;;11.30;99.90;;;;;;5051327;28;20498;-52
2021/10/20 01:38:03;;;;;;;12.05;7.28;;;11.20;99.90;;;;;;5050574;28;20721;-53
2021/10/20 01:40:29;;;;;;;12.63;7.18;;;11.20;99.90;;;;;;5051297;28;20427;-53
2021/10/20 01:42:55;;;;;;;12.75;7.10;;;11.30;99.90;;;;;;5050954;28;20417;-57
2021/10/20 01:45:21;;;;;;;12.18;6.85;;;11.30;99.90;;;;;;5049760;28;20481;-53
2021/10/20 01:47:47;;;;;;;11.50;6.87;;;11.30;99.90;;;;;;5051229;28;20401;-53
2021/10/20 01:50:14;;;;;;;12.85;7.10;;;11.30;99.90;;;;;;5050777;28;20400;-53
2021/10/20 01:52:40;;;;;;;11.07;6.07;;;11.50;99.90;;;;;;5051176;28;20748;-52
2021/10/20 01:55:11;;;;;;;11.77;6.20;;;11.30;99.90;;;;;;5050376;28;20385;-53
2021/10/20 01:57:39;;;;;;;11.70;5.80;;;11.10;99.90;;;;;;5051240;28;20378;-53
2021/10/20 02:00:07;;;;;;;12.60;6.40;;;11.00;99.90;;;;;;5050668;28;20869;-52
2021/10/20 02:02:33;;;;;;;10.80;6.43;;;10.90;99.90;;;;;;5050564;28;20421;-53
2021/10/20 02:04:58;;;;;;;13.10;6.90;;;11.00;99.90;;;;;;5050292;28;20413;-53
2021/10/20 02:07:24;;;;;;;11.30;7.03;;;11.00;99.90;;;;;;5050781;28;20414;-52
2021/10/20 02:09:50;;;;;;;12.40;6.78;;;11.10;99.90;;;;;;5051062;28;20416;-53
2021/10/20 02:12:15;;;;;;;12.97;6.73;;;11.10;99.90;;;;;;5050052;28;21059;-53
2021/10/20 02:14:41;;;;;;;11.73;6.70;;;11.10;99.90;;;;;;5050825;28;20393;-52
2021/10/20 02:17:07;;;;;;;10.38;5.78;;;11.10;99.90;;;;;;5049595;28;20381;-53
2021/10/20 02:19:33;;;;;;;11.60;6.40;;;11.00;99.90;;;;;;5049555;28;20394;-53
2021/10/20 02:21:59;;;;;;;11.20;6.30;;;10.90;99.90;;;;;;5049893;28;20472;-53
2021/10/20 02:24:25;;;;;;;10.88;5.72;;;10.90;99.90;;;;;;5050913;28;20417;-53
2021/10/20 02:26:51;;;;;;;10.40;5.90;;;10.90;99.90;;;;;;5049277;28;20444;-53
2021/10/20 02:29:17;;;;;;;10.33;5.93;;;10.90;99.90;;;;;;5049453;28;20439;-52
2021/10/20 02:31:46;;;;;;;12.80;6.32;;;10.90;99.90;;;;;;5050542;28;20381;-53
2021/10/20 02:34:21;;;;;;;15.18;5.95;;;11.00;99.90;;;;;;5049639;28;20437;-53
2021/10/20 02:36:47;;;;;;;12.30;6.35;;;11.10;99.90;;;;;;5050090;28;20403;-52
2021/10/20 02:39:13;;;;;;;10.70;6.28;;;11.10;99.90;;;;;;5049656;28;20389;-53
2021/10/20 02:41:39;;;;;;;10.82;6.70;;;11.00;99.90;;;;;;5050333;28;20377;-53
2021/10/20 02:44:05;;;;;;;10.80;6.37;;;11.00;99.90;;;;;;5049395;28;20388;-53
2021/10/20 02:46:32;;;;;;;11.95;6.47;;;10.90;99.90;;;;;;5050062;28;20511;-52
2021/10/20 02:48:58;;;;;;;11.88;6.85;;;11.00;99.90;;;;;;5049217;28;20381;-57
2021/10/20 02:51:24;;;;;;;12.73;7.10;;;11.10;99.90;;;;;;5049787;28;20378;-53
2021/10/20 02:53:50;;;;;;;12.95;6.68;;;11.10;99.90;;;;;;5049587;28;20384;-53
2021/10/20 02:56:17;;;;;;;11.07;7.17;;;11.00;99.90;;;;;;5049281;28;20464;-53
2021/10/20 02:58:43;;;;;;;11.82;6.65;;;11.00;99.90;;;;;;5049966;28;20873;-53
2021/10/20 03:01:09;;;;;;;13.67;7.17;;;10.90;99.90;;;;;;5048809;28;20462;-53
2021/10/20 03:03:35;;;;;;;10.75;6.40;;;10.90;99.90;;;;;;5049928;28;20390;-53
2021/10/20 03:06:00;;;;;;;14.07;7.60;;;10.80;99.90;;;;;;5048021;28;20741;-54
2021/10/20 03:08:26;;;;;;;11.63;7.60;;;10.80;99.90;;;;;;5049046;28;20502;-53
2021/10/20 03:10:52;;;;;;;12.33;7.43;;;10.80;99.90;;;;;;5049962;28;20393;-53
2021/10/20 03:13:17;;;;;;;13.82;7.10;;;10.80;99.90;;;;;;5048537;28;20401;-52
2021/10/20 03:15:43;;;;;;;11.70;7.13;;;10.70;99.90;;;;;;5049338;28;20393;-53
2021/10/20 03:18:08;;;;;;;12.40;7.07;;;10.60;99.90;;;;;;5048690;28;20418;-53
2021/10/20 03:20:34;;;;;;;12.32;6.75;;;10.60;99.90;;;;;;5049262;28;20508;-53
2021/10/20 03:23:00;;;;;;;11.50;7.03;;;10.50;99.90;;;;;;5049089;28;20386;-52
2021/10/20 03:25:26;;;;;;;11.50;7.10;;;10.50;99.90;;;;;;5049743;28;20377;-53
2021/10/20 03:27:52;;;;;;;13.50;7.32;;;10.50;99.90;;;;;;5049271;28;20440;-53
2021/10/20 03:30:20;;;;;;;11.23;6.50;;;10.50;99.90;;;;;;5048325;28;20378;-53
2021/10/20 03:32:46;;;;;;;14.77;7.20;;;10.40;99.90;;;;;;5049647;28;20472;-53
2021/10/20 03:35:13;;;;;;;12.55;7.00;;;10.40;99.90;;;;;;5048709;28;20386;-52
2021/10/20 03:37:39;;;;;;;11.55;6.72;;;10.40;99.90;;;;;;5049374;28;20440;-53
2021/10/20 03:40:06;;;;;;;11.30;7.00;;;10.40;99.90;;;;;;5048211;28;20484;-54
2021/10/20 03:42:32;;;;;;;12.23;6.50;;;10.50;99.90;;;;;;5049063;28;20381;-53
2021/10/20 03:44:59;;;;;;;12.20;7.30;;;10.50;99.90;;;;;;5048692;28;20415;-56
2021/10/20 03:47:25;;;;;;;11.63;6.50;;;10.60;99.90;;;;;;5048995;28;20760;-52
2021/10/20 03:49:51;;;;;;;10.73;6.38;;;10.60;99.90;;;;;;5049036;28;20416;-53
2021/10/20 03:52:18;;;;;;;11.20;6.10;;;10.50;99.90;;;;;;5048533;28;20742;-53
2021/10/20 03:54:44;;;;;;;11.02;6.55;;;10.50;99.90;;;;;;5049275;28;20435;-53
2021/10/20 03:57:10;;;;;;;12.88;7.20;;;10.40;99.90;;;;;;5048513;28;20381;-53
2021/10/20 03:59:36;;;;;;;12.40;6.70;;;10.30;99.90;;;;;;5049131;28;20394;-53
2021/10/20 04:02:02;;;;;;;10.47;6.53;;;10.20;99.90;;;;;;5048533;28;20381;-53
2021/10/20 04:04:28;;;;;;;12.25;5.90;;;10.30;99.90;;;;;;5048987;28;20385;-53
2021/10/20 04:06:53;;;;;;;9.35;4.90;;;10.30;99.90;;;;;;5048751;28;20792;-54
2021/10/20 04:09:19;;;;;;;10.50;5.60;;;10.20;99.90;;;;;;5032608;28;20886;-53
2021/10/20 04:11:45;;;;;;;7.15;3.70;;;10.30;99.90;;;;;;5033317;28;20418;-53
2021/10/20 04:14:10;;;;;;;10.00;4.80;;;10.50;99.90;;;;;;5031462;28;20379;-52
2021/10/20 04:16:36;;;;;;;8.60;3.90;;;10.80;99.90;;;;;;5046474;28;20397;-53
2021/10/20 04:19:03;;;;;;;9.17;5.50;;;11.10;99.90;;;;;;5051678;28;20423;-53
2021/10/20 04:21:28;;;;;;;12.90;6.83;;;11.30;99.90;;;;;;5052449;28;20385;-53
2021/10/20 04:23:54;;;;;;;13.10;6.80;;;11.30;99.90;;;;;;5049406;28;20400;-52
2021/10/20 04:26:20;;;;;;;12.50;7.23;;;10.90;99.90;;;;;;5031787;28;21278;-55
2021/10/20 04:28:45;;;;;;;11.75;7.00;;;10.80;99.90;;;;;;5032291;28;20907;-52
2021/10/20 04:31:11;;;;;;;14.47;6.83;;;10.70;99.90;;;;;;5050349;28;20476;-53
2021/10/20 04:33:37;;;;;;;11.32;6.30;;;10.60;99.90;;;;;;5034038;28;20399;-53
2021/10/20 04:36:02;;;;;;;11.70;6.43;;;10.60;99.90;;;;;;5031039;28;20738;-53
2021/10/20 04:38:28;;;;;;;13.15;5.78;;;10.50;99.90;;;;;;5039769;28;20830;-53
2021/10/20 04:40:54;;;;;;;12.30;5.50;;;10.40;99.90;;;;;;5049106;28;20933;-53
2021/10/20 04:43:19;;;;;;;10.10;5.00;;;10.30;99.90;;;;;;5034264;28;20494;-54
2021/10/20 04:45:45;;;;;;;11.27;4.10;;;10.30;99.90;;;;;;5034830;28;20405;-53
2021/10/20 04:48:11;;;;;;;7.03;3.30;;;10.50;99.90;;;;;;5037196;28;20548;-54
2021/10/20 04:50:36;;;;;;;11.60;4.10;;;10.70;99.90;;;;;;5038052;28;20483;-53
2021/10/20 04:53:03;;;;;;;10.10;3.90;;;10.90;99.90;;;;;;5035581;28;20387;-53
2021/10/20 04:55:29;;;;;;;8.63;4.30;;;11.10;99.90;;;;;;5031404;28;21213;-54
2021/10/20 04:57:55;;;;;;;9.13;4.07;;;11.20;99.90;;;;;;5049214;28;20825;-55
2021/10/20 05:00:24;;;;;;;7.38;3.88;;;11.40;99.90;;;;;;5032912;28;20383;-53
2021/10/20 05:02:51;;;;;;;8.80;4.60;;;11.50;99.90;;;;;;5032729;28;20449;-53
2021/10/20 05:05:16;;;;;;;8.75;4.00;;;11.60;99.90;;;;;;5040795;28;20411;-53
2021/10/20 05:07:56;;;;;;;8.23;4.80;;;11.60;99.90;;;;;;5043085;28;20426;-54
2021/10/20 05:10:25;;;;;;;9.00;4.53;;;11.40;99.90;;;;;;5042474;28;20397;-53
2021/10/20 05:12:51;;;;;;;11.00;5.10;;;11.40;99.90;;;;;;5050500;28;20858;-53
2021/10/20 05:15:17;;;;;;;12.70;5.50;;;11.30;99.90;;;;;;5049481;28;21100;-53
2021/10/20 05:17:43;;;;;;;10.85;5.40;;;11.30;99.90;;;;;;5050657;28;20389;-53
2021/10/20 05:20:11;;;;;;;11.52;5.50;;;11.20;99.90;;;;;;5047801;28;20440;-55
2021/10/20 05:22:39;;;;;;;9.80;5.70;;;11.00;99.90;;;;;;5035363;28;20497;-54
2021/10/20 05:25:07;;;;;;;11.05;5.20;;;10.90;99.90;;;;;;5044570;28;20436;-53
2021/10/20 05:27:33;;;;;;;10.38;5.40;;;10.80;99.90;;;;;;5047043;28;20752;-53
2021/10/20 05:29:59;;;;;;;11.10;5.45;;;10.70;99.90;;;;;;5049870;28;20552;-56
2021/10/20 05:32:26;;;;;;;11.95;6.60;;;10.60;99.90;;;;;;5043083;28;20403;-53
2021/10/20 05:34:52;;;;;;;10.13;5.53;;;10.40;99.90;;;;;;5050265;28;20468;-53
2021/10/20 05:37:18;;;;;;;9.85;5.32;;;10.40;99.90;;;;;;5047814;28;20393;-54
2021/10/20 05:39:45;;;;;;;10.60;5.60;;;10.50;99.90;;;;;;5043694;28;20405;-53
2021/10/20 05:42:10;;;;;;;9.40;5.60;;;10.60;99.90;;;;;;5047746;28;20389;-53
2021/10/20 05:44:36;;;;;;;13.03;6.70;;;10.70;99.90;;;;;;5047529;28;20402;-54
2021/10/20 05:47:02;;;;;;;14.30;7.10;;;10.60;99.90;;;;;;5043080;28;20968;-53
2021/10/20 05:49:27;;;;;;;13.60;6.50;;;10.60;99.90;;;;;;5044154;28;20405;-53
2021/10/20 05:51:53;;;;;;;14.50;6.80;;;10.50;99.90;;;;;;5049418;28;20864;-55
2021/10/20 05:54:19;;;;;;;12.68;6.60;;;10.50;99.90;;;;;;5048791;28;20381;-53
2021/10/20 05:56:44;;;;;;;13.27;6.47;;;10.60;99.90;;;;;;5050305;28;20994;-53
2021/10/20 05:59:10;;;;;;;14.07;6.45;;;10.60;99.90;;;;;;5048728;28;20546;-53
2021/10/20 06:01:35;;;;;;;15.07;6.67;;;10.60;99.90;;;;;;5048960;28;20408;-54
2021/10/20 06:04:01;;;;;;;9.45;5.65;;;10.50;99.90;;;;;;5048794;28;20860;-53
2021/10/20 06:06:27;;;;;;;12.53;6.10;;;10.50;99.90;;;;;;5049852;28;20864;-53
2021/10/20 06:08:53;;;;;;;11.63;6.40;;;10.50;99.90;;;;;;4986384;28;1793522;-53
2021/10/20 06:11:19;;;;;;;13.35;6.70;;;10.40;99.90;;;;;;5046889;28;20487;-53
2021/10/20 06:13:46;;;;;;;12.82;5.90;;;10.40;99.90;;;;;;5038290;28;20421;-54
2021/10/20 06:16:11;;;;;;;13.45;6.25;;;10.30;99.90;;;;;;5048674;28;20394;-54
2021/10/20 06:18:40;;;;;;;11.50;6.13;;;10.30;99.90;;;;;;5050486;28;20404;-53
2021/10/20 06:21:06;;;;;;;12.25;6.40;;;10.20;99.90;;;;;;5045634;28;20407;-53
2021/10/20 06:23:32;;;;;;;13.63;6.50;;;10.30;99.90;;;;;;5042343;28;20390;-54
2021/10/20 06:25:58;;;;;;;11.70;6.50;;;10.30;99.90;;;;;;5037498;28;20747;-53
2021/10/20 06:28:25;;;;;;;17.73;6.82;;;10.30;99.90;;;;;;5029294;28;20414;-53
2021/10/20 06:30:50;;;;;;;13.77;6.03;;;10.20;99.90;;;;;;5032036;28;20389;-53
2021/10/20 06:33:16;;;;;;;10.98;6.45;;;10.40;99.90;;;;;;5049406;28;20396;-54
2021/10/20 06:35:43;;;;;;;13.85;7.20;;;10.60;99.90;;;;;;5045689;28;20474;-53
2021/10/20 06:38:08;;;;;;;12.63;6.50;;;10.70;99.90;;;;;;5029755;28;20453;-51
2021/10/20 06:40:34;;;;;;;11.57;5.82;;;11.50;99.90;;;;;;5028803;28;20391;-54
2021/10/20 06:43:00;;;;;;;12.10;6.20;;;12.90;99.90;;;;;;5030028;28;20433;-58
2021/10/20 06:45:26;;;;;;;10.48;6.00;;;14.50;99.90;;;;;;5029525;28;20449;-52
2021/10/20 06:47:52;;;;;;;12.57;6.47;;;15.70;99.90;;;;;;5030127;28;20685;-53
2021/10/20 06:50:18;;;;;;;11.13;6.55;;;16.50;99.90;;;;;;5048194;28;20381;-55
2021/10/20 06:52:44;;;;;;;13.02;7.40;;;16.10;99.90;;;;;;5049197;28;20416;-53
2021/10/20 06:55:11;;;;;;;20.58;7.10;;;16.60;99.90;;;;;;5043619;28;20743;-56
2021/10/20 06:57:39;;;;;;;13.75;10.05;;;18.30;99.90;;;;;;5043983;28;20942;-52
2021/10/20 07:00:06;;;;;;;13.95;12.65;;;18.70;99.90;;;;;;5048630;28;20378;-52
2021/10/20 07:02:31;;;;;;;14.15;12.85;;;20.00;99.90;;;;;;5049232;28;20853;-52
2021/10/20 07:04:57;;;;;;;11.57;5.85;;;21.10;97.00;;;;;;5049538;28;20392;-53
2021/10/20 07:07:23;;;;;;;8.57;4.15;;;22.70;93.10;;;;;;5048254;28;20459;-53
2021/10/20 07:09:48;;;;;;;7.78;4.10;;;23.80;86.50;;;;;;5033484;28;20418;-53
2021/10/20 07:12:14;;;;;;;9.27;4.60;;;25.30;78.20;;;;;;5029221;28;20851;-53
2021/10/20 07:14:40;;;;;;;8.90;4.60;;;26.50;71.30;;;;;;5038113;28;20392;-54
2021/10/20 07:17:09;;;;;;;8.10;5.00;;;27.30;67.80;;;;;;5028962;28;20378;-53
2021/10/20 07:19:38;;;;;;;8.38;5.10;;;27.40;65.70;;;;;;5029160;28;20410;-55
2021/10/20 07:22:08;;;;;;;9.05;4.80;;;27.10;65.10;;;;;;5028267;28;20376;-53
2021/10/20 07:24:34;;;;;;;9.68;5.20;;;26.90;64.30;;;;;;5029334;28;20387;-53
2021/10/20 07:27:01;;;;;;;13.38;5.88;;;26.40;66.60;;;;;;5029166;28;20446;-58
2021/10/20 07:29:27;;;;;;;14.80;5.60;;;27.00;63.70;;;;;;5028754;28;20380;-55
2021/10/20 07:31:53;;;;;;;11.73;6.07;;;27.30;60.90;;;;;;5042702;28;20400;-55
2021/10/20 07:34:18;;;;;;;10.52;6.30;;;27.30;60.70;;;;;;5048121;28;20385;-55
2021/10/20 07:36:44;;;;;;;11.77;6.67;;;27.00;61.30;;;;;;5047845;28;20468;-54
2021/10/20 07:39:12;;;;;;;12.40;6.90;;;26.80;62.50;;;;;;5047075;28;20877;-55
2021/10/20 07:41:38;;;;;;;15.30;8.53;;;26.70;63.00;;;;;;5049355;28;20489;-58
2021/10/20 07:44:04;;;;;;;18.60;17.00;;;26.20;63.90;;;;;;5048212;28;20476;-56
2021/10/20 07:46:30;;;;;;;14.27;12.37;;;25.10;66.00;;;;;;5048985;28;20461;-53
2021/10/20 07:48:55;;;;;;;14.60;12.70;;;24.20;68.90;;;;;;5048926;28;20908;-54
2021/10/20 07:51:23;;;;;;;13.90;12.40;;;23.40;72.00;;;;;;5048339;28;20698;-55
2021/10/20 07:53:48;;;;;;;14.25;12.75;;;23.10;73.30;;;;;;5048833;28;20468;-54
2021/10/20 07:56:14;;;;;;;13.20;11.90;;;23.00;74.70;;;;;;5046639;28;20489;-51
2021/10/20 07:58:40;;;;;;;13.70;12.40;;;23.80;73.40;;;;;;5047730;28;20397;-53
2021/10/20 08:01:06;;;;;;;12.85;11.55;;;24.10;72.70;;;;;;5033828;28;20905;-52
2021/10/20 08:03:31;;;;;;;14.63;11.57;;;24.20;73.40;;;;;;5049340;28;20389;-52
2021/10/20 08:05:57;;;;;;;13.50;11.90;;;23.80;73.80;;;;;;5036557;28;20536;-53
2021/10/20 08:08:23;;;;;;;12.90;11.60;;;24.10;73.30;;;;;;5041481;28;20459;-52
2021/10/20 08:10:48;;;;;;;12.67;11.37;;;24.60;71.60;;;;;;5048265;28;20390;-53
2021/10/20 08:13:14;;;;;;;13.17;10.83;;;24.50;72.70;;;;;;5046606;28;20420;-53
2021/10/20 08:15:42;;;;;;;12.53;11.07;;;24.70;71.50;;;;;;5046313;28;20402;-52
2021/10/20 08:18:17;;;;;;;13.17;11.27;;;25.10;71.00;;;;;;5046928;28;20401;-53
2021/10/20 08:20:42;;;;;;;11.07;9.98;;;26.20;69.50;;;;;;5048623;28;20428;-53
2021/10/20 08:23:08;;;;;;;11.73;10.63;;;26.60;67.60;;;;;;5042267;28;20374;-54
2021/10/20 08:25:37;;;;;;;10.10;9.20;;;26.90;67.40;;;;;;5028801;28;20382;-53
2021/10/20 08:28:05;;;;;;;10.85;9.85;;;26.40;61.90;;;;;;5028427;28;20402;-58
2021/10/20 08:30:32;;;;;;;10.40;9.48;;;25.30;63.30;;;;;;5028695;28;20395;-54
2021/10/20 08:32:58;;;;;;;9.50;8.60;;;24.70;63.70;;;;;;5028537;28;20386;-52
2021/10/20 08:35:24;;;;;;;10.00;9.10;;;24.70;64.50;;;;;;5027828;28;20414;-52
2021/10/20 08:37:56;;;;;;;10.50;9.40;;;24.50;65.00;;;;;;5038186;28;20399;-53
2021/10/20 08:40:29;;;;;;;11.18;10.10;;;23.70;66.00;;;;;;5039913;28;20485;-53
2021/10/20 08:42:56;;;;;;;11.23;10.13;;;23.30;67.20;;;;;;5041885;28;20401;-55
2021/10/20 08:45:22;;;;;;;10.70;9.70;;;23.20;68.60;;;;;;5047463;28;20497;-52
2021/10/20 08:47:48;;;;;;;13.47;10.50;;;23.60;67.60;;;;;;5045825;28;21202;-53
2021/10/20 08:50:21;;;;;;;11.00;9.43;;;24.00;68.10;;;;;;5044941;28;20405;-53
2021/10/20 08:52:48;;;;;;;10.50;9.60;;;24.30;68.30;;;;;;5048392;28;20459;-53
2021/10/20 08:55:14;;;;;;;11.10;10.10;;;23.90;67.90;;;;;;5047519;28;20500;-53
2021/10/20 08:57:40;;;;;;;11.23;10.13;;;23.00;69.50;;;;;;5051971;28;20500;-53
2021/10/20 09:00:07;;;;;;;11.37;10.37;;;23.40;71.90;;;;;;5049934;28;20448;-54
2021/10/20 09:02:38;;;;;;;11.00;10.00;;;24.60;68.80;;;;;;5046104;28;20889;-54
2021/10/20 09:05:04;;;;;;;10.80;9.70;;;25.60;67.40;;;;;;5043871;28;20402;-57
2021/10/20 09:07:30;;;;;;;9.65;8.75;;;26.00;64.70;;;;;;5044098;28;20423;-54
2021/10/20 09:09:56;;;;;;;10.60;9.70;;;25.40;63.70;;;;;;5040314;28;20421;-54
2021/10/20 09:12:26;;;;;;;11.10;10.20;;;25.00;66.00;;;;;;5040822;28;20874;-53
2021/10/20 09:14:59;;;;;;;10.93;9.45;;;24.60;67.20;;;;;;5031293;28;20430;-53
2021/10/20 09:17:40;;;;;;;9.95;8.95;;;24.10;69.30;;;;;;5031147;28;20923;-54
2021/10/20 09:20:34;;;;;;;10.73;9.50;;;23.10;70.50;;;;;;5030635;28;20897;-53
2021/10/20 09:23:07;;;;;;;11.55;10.45;;;22.40;72.30;;;;;;5031354;28;20466;-53
2021/10/20 09:25:41;;;;;;;10.57;9.57;;;22.30;75.30;;;;;;5031478;28;20427;-53
2021/10/20 09:28:10;;;;;;;10.80;9.80;;;22.30;75.80;;;;;;5030709;28;20421;-53
2021/10/20 09:30:38;;;;;;;10.60;9.60;;;22.80;75.00;;;;;;5031291;28;20422;-53
2021/10/20 09:33:09;;;;;;;10.27;9.48;;;23.30;74.10;;;;;;5031113;28;20470;-57
2021/10/20 09:35:35;;;;;;;10.50;9.60;;;23.30;74.30;;;;;;5046738;28;20423;-53
2021/10/20 09:38:02;;;;;;;10.57;9.55;;;23.70;73.10;;;;;;5030714;28;20532;-53
2021/10/20 09:40:37;;;;;;;10.30;9.20;;;23.30;73.30;;;;;;5030898;28;20391;-53
2021/10/20 09:43:03;;;;;;;8.93;8.13;;;23.40;74.50;;;;;;5031233;28;20390;-56
2021/10/20 09:45:38;;;;;;;9.70;8.70;;;23.50;75.50;;;;;;5032820;28;20919;-54
2021/10/20 09:48:21;;;;;;;10.80;8.70;;;23.70;74.60;;;;;;5049218;28;20448;-57
2021/10/20 09:51:06;;;;;;;9.32;8.32;;;24.00;74.50;;;;;;5050847;28;20428;-53
2021/10/20 09:53:35;;;;;;;9.60;8.57;;;23.70;73.80;;;;;;5050446;28;20406;-53
2021/10/20 09:56:03;;;;;;;9.50;8.50;;;24.30;74.40;;;;;;5044902;28;20412;-54
2021/10/20 09:58:32;;;;;;;9.70;8.80;;;25.00;73.10;;;;;;5045082;28;21070;-54
2021/10/20 10:01:00;;;;;;;10.70;9.60;;;25.30;71.60;;;;;;5042487;28;20430;-54
2021/10/20 10:03:26;;;;;;;9.20;8.30;;;25.60;72.00;;;;;;5045440;28;20394;-54
2021/10/20 10:05:52;;;;;;;9.90;9.02;;;25.90;71.10;;;;;;5047938;28;20481;-53
2021/10/20 10:08:18;;;;;;;9.20;8.30;;;25.90;69.70;;;;;;5048932;28;20496;-53
2021/10/20 10:10:44;;;;;;;11.20;9.20;;;25.50;70.90;;;;;;5050580;28;20489;-53
2021/10/20 10:13:17;;;;;;;9.88;8.88;;;25.20;71.80;;;;;;5049823;28;20431;-53
2021/10/20 10:15:43;;;;;;;9.05;8.13;;;24.50;72.20;;;;;;5050264;28;20389;-53
2021/10/20 10:18:10;;;;;;;9.73;8.63;;;24.00;74.60;;;;;;5049435;28;21018;-53
2021/10/20 10:20:44;;;;;;;11.30;9.00;;;24.10;76.10;;;;;;5050166;28;20385;-53
2021/10/20 10:23:25;;;;;;;9.13;8.23;;;24.90;74.80;;;;;;5049339;28;20476;-54
2021/10/20 10:26:03;;;;;;;9.20;8.30;;;25.10;74.70;;;;;;5050182;28;20382;-52
2021/10/20 10:28:31;;;;;;;8.60;6.90;;;24.60;76.60;;;;;;5049638;28;20413;-53
2021/10/20 10:31:01;;;;;;;11.85;8.10;;;24.10;77.80;;;;;;5049923;28;20443;-54
2021/10/20 10:33:28;;;;;;;7.40;6.60;;;24.20;78.80;;;;;;5050198;28;20385;-54
2021/10/20 10:36:13;;;;;;;9.73;6.80;;;24.30;79.00;;;;;;5050005;28;20408;-55
2021/10/20 10:38:40;;;;;;;8.60;7.80;;;24.40;79.20;;;;;;5050113;28;20409;-55
2021/10/20 10:41:18;;;;;;;10.07;7.63;;;24.40;78.80;;;;;;5049061;28;20765;-59
2021/10/20 10:44:08;;;;;;;8.30;7.43;;;24.20;79.40;;;;;;5049742;28;20477;-56
2021/10/20 10:46:45;;;;;;;8.30;7.50;;;23.80;79.70;;;;;;5048987;28;20860;-53
2021/10/20 10:49:34;;;;;;;8.95;8.05;;;24.30;81.20;;;;;;5048741;28;20416;-53
2021/10/20 10:52:17;;;;;;;7.70;6.90;;;24.90;78.70;;;;;;5049680;28;20388;-53
2021/10/20 10:55:08;;;;;;;7.70;6.90;;;25.20;78.20;;;;;;5049518;28;20396;-54
2021/10/20 10:57:36;;;;;;;8.80;7.73;;;24.80;79.40;;;;;;5049560;28;20436;-53
2021/10/20 11:00:35;;;;;;;7.93;7.13;;;24.80;79.30;;;;;;5049900;28;20377;-55
2021/10/20 11:03:06;;;;;;;10.52;7.28;;;24.40;79.00;;;;;;5044932;28;20409;-53
2021/10/20 11:05:33;;;;;;;8.07;7.28;;;24.60;78.50;;;;;;5049216;28;20413;-54
2021/10/20 11:08:10;;;;;;;7.70;7.00;;;24.40;80.10;;;;;;5049680;28;20467;-53
2021/10/20 11:10:42;;;;;;;9.20;7.22;;;24.50;79.10;;;;;;5049401;28;20420;-53
2021/10/20 11:13:08;;;;;;;9.60;8.00;;;24.70;78.30;;;;;;5048619;28;20400;-56
2021/10/20 11:15:35;;;;;;;8.52;7.00;;;24.80;76.30;;;;;;5049310;28;20386;-54
2021/10/20 11:18:02;;;;;;;7.95;6.50;;;24.80;76.80;;;;;;5049101;28;20381;-54
2021/10/20 11:20:31;;;;;;;8.90;6.60;;;25.00;77.00;;;;;;5048204;28;20409;-54
2021/10/20 11:23:01;;;;;;;7.50;6.70;;;25.20;76.70;;;;;;5049320;28;20401;-54
2021/10/20 11:25:27;;;;;;;8.10;7.30;;;25.00;75.80;;;;;;5048122;28;20377;-53
2021/10/20 11:27:55;;;;;;;9.93;7.47;;;25.00;77.00;;;;;;5048851;28;20500;-53
2021/10/20 11:30:23;;;;;;;8.80;6.75;;;24.80;77.70;;;;;;5047761;28;20385;-55
2021/10/20 11:32:49;;;;;;;7.97;7.18;;;24.80;77.40;;;;;;5049136;28;20895;-53
2021/10/20 11:35:20;;;;;;;10.73;7.20;;;24.70;76.80;;;;;;5048746;28;20408;-53
2021/10/20 11:38:04;;;;;;;7.57;6.78;;;24.60;77.00;;;;;;5048436;28;20934;-53
2021/10/20 11:40:52;;;;;;;8.18;7.32;;;24.60;78.60;;;;;;5048605;28;20385;-53
2021/10/20 11:43:19;;;;;;;8.03;6.90;;;24.60;77.50;;;;;;5048295;28;20443;-54
2021/10/20 11:45:46;;;;;;;9.50;7.65;;;24.70;78.70;;;;;;5048964;28;20381;-53
2021/10/20 11:48:18;;;;;;;8.50;7.00;;;24.80;78.50;;;;;;5048140;28;21157;-53
2021/10/20 11:50:51;;;;;;;7.00;6.30;;;24.80;78.10;;;;;;5048924;28;20382;-54
2021/10/20 11:53:17;;;;;;;8.60;6.90;;;24.70;78.50;;;;;;5048203;28;20381;-54
2021/10/20 11:55:45;;;;;;;9.17;7.17;;;24.70;78.50;;;;;;5049162;28;20377;-53
2021/10/20 11:58:21;;;;;;;8.10;7.20;;;24.50;79.90;;;;;;5031649;28;20401;-53
2021/10/20 12:00:57;;;;;;;8.13;7.20;;;24.10;80.30;;;;;;5038685;28;20389;-53
2021/10/20 12:03:33;;;;;;;8.32;6.65;;;24.30;80.20;;;;;;5048732;28;20385;-54
2021/10/20 12:06:01;;;;;;;7.60;6.90;;;24.30;80.10;;;;;;5048742;28;20389;-54
2021/10/20 12:08:29;;;;;;;7.88;7.07;;;24.80;80.60;;;;;;5047230;28;20421;-55
2021/10/20 12:10:54;;;;;;;7.60;6.80;;;25.00;79.60;;;;;;5048066;28;20380;-54
2021/10/20 12:13:20;;;;;;;7.20;6.50;;;25.10;79.80;;;;;;5047724;28;20468;-54
2021/10/20 12:15:47;;;;;;;7.70;6.90;;;25.00;78.00;;;;;;5048901;28;20409;-54
2021/10/20 12:18:16;;;;;;;7.90;7.10;;;24.60;79.30;;;;;;5048012;28;20396;-54
2021/10/20 12:20:49;;;;;;;7.85;6.57;;;24.40;81.40;;;;;;5048380;28;20378;-54
2021/10/20 12:23:14;;;;;;;7.50;6.80;;;24.30;81.80;;;;;;5046967;28;20393;-54
2021/10/20 12:25:40;;;;;;;8.02;6.70;;;24.10;83.50;;;;;;5049477;28;20702;-54
2021/10/20 12:28:10;;;;;;;8.52;7.13;;;24.00;84.00;;;;;;5052871;28;20413;-56
2021/10/20 12:30:38;;;;;;;9.30;8.40;;;24.00;84.40;;;;;;5052659;28;20385;-55
2021/10/20 12:33:12;;;;;;;8.23;7.35;;;23.70;84.40;;;;;;5052692;28;20385;-55
2021/10/20 12:35:40;;;;;;;8.10;7.30;;;23.30;86.20;;;;;;5052732;28;20385;-54
2021/10/20 12:38:06;;;;;;;9.25;8.00;;;23.00;87.20;;;;;;5051592;28;20884;-54
2021/10/20 12:40:32;;;;;;;9.30;7.30;;;22.90;87.60;;;;;;5051799;28;20381;-53